Impacts METAR Board
IDs:

KLXY - Mexia/Limestone Cnty, TX, US

Updated at: 1300 UTC 14 Dec 2019
Potential Impact None Slight Moderate High
Time 14/01Z 14/02Z 14/03Z 14/04Z 14/05Z 14/06Z 14/07Z 14/08Z 14/09Z 14/10Z 14/11Z 14/12Z 14/13Z
Temp57 50 53 52 52 50 50 43 42 44 42 43 42
Dewpt46 45 45 45 45 44 44 39 40 43 42 43 41
Altim29.85 29.86 29.86 29.86 29.87 29.86 29.86 29.86 29.88 29.87 29.87 29.88 29.89
VIS10 10 10 10 10 10 10 10 10 10 5 4 1.5
CIG-- -- -- -- -- -- -- -- -- -- -- -- 7
CoverCLRCLRCLRCLRCLRCLRCLRCLRCLRCLRCLRCLROVX
FltCatVFRVFRVFRVFRVFRVFRVFRVFRVFRVFRMVFRMVFRIFR
WX--------------------BRBRBR
WDir2802901029029029031003200000
WSpd4 6 5 6 5 6 6 0 4 0 0 0 0
WGst-- -- -- -- -- -- -- -- -- -- -- -- --
Raw hourly METARs
KLXY 140055Z AUTO 28004KT 10SM CLR 14/08 A2985 RMK AO2 T01400080
KLXY 140155Z AUTO 29006KT 10SM CLR 10/07 A2986 RMK AO2 T01000071
KLXY 140255Z AUTO 01005KT 10SM CLR 12/07 A2986 RMK AO2 T01150073
KLXY 140355Z AUTO 29006KT 10SM CLR 11/07 A2986 RMK AO2 T01110072
KLXY 140455Z AUTO 29005KT 10SM CLR 11/07 A2987 RMK AO2 T01130070
KLXY 140555Z AUTO 29006KT 10SM CLR 10/07 A2986 RMK AO2 T01020068 10145 20094 401800064
KLXY 140655Z AUTO 31006KT 10SM CLR 10/07 A2986 RMK AO2 T00980066
KLXY 140755Z AUTO 00000KT 10SM CLR 06/04 A2986 RMK AO2 T00600037
KLXY 140855Z AUTO 32004KT 10SM CLR 05/05 A2988 RMK AO2 T00540046
KLXY 140955Z AUTO 00000KT 10SM CLR 07/06 A2987 RMK AO2 T00670062
KLXY 141055Z AUTO 00000KT 5SM BR CLR 06/05 A2987 RMK AO2 T00570054
KLXY 141155Z AUTO 00000KT 4SM BR CLR 06/06 A2988 RMK AO2 T00610060 10105 20046
KLXY 141255Z AUTO 00000KT 1 1/2SM BR VV007 06/05 A2989 RMK AO2 T00550051



Page loaded:  13:49 UTC  |   05:49 AM Pacific  |   06:49 AM Mountain  |   07:49 AM Central  |   08:49 AM Eastern

 

ADVISORIES

FORECASTS

FORECASTS

OBSERVATIONS

USER TOOLS

ABOUT US